Zim Chicago — A8SI9 — position and weather

sailwx.info

Track history (hours):
 
Tides and Currents Weather Stations Pressure Air Temp Water Temp Dewpoint Dewpoint Depression Visibility Wind Speed Wind Dir Waves Ship Positions

Zim Chicago

Last reported at 2016-Dec-10 12:15 UTC. Time now 2016-Dec-10 12:44 UTC.
Position S 34°35' W 058°22'.

Length 334 m; draft 11.4 m.

Type: Cargo ship. MMSI: 636014223.

Date/timePositionNaut miles runAvg speedWind from/ knotsBaromVisibWave heightAir tempDewpointWater temp
2016-Dec-10 12:15S 34°35' W 058°22'0 0.0
2016-Dec-10 11:21S 34°35' W 058°22'0 0.0
2016-Dec-10 10:33S 34°35' W 058°22'0 0.0
2016-Dec-10 09:30S 34°35' W 058°22'0 0.0
2016-Dec-10 06:27S 34°35' W 058°22'0 0.0
2016-Dec-10 05:21S 34°35' W 058°22'0 0.0
2016-Dec-10 04:33S 34°35' W 058°22'0 0.0
2016-Dec-10 03:33S 34°35' W 058°22'0 0.0
2016-Dec-10 02:30S 34°35' W 058°22'0 0.0
2016-Dec-10 01:33S 34°35' W 058°22'0 0.0
2016-Dec-10 00:21S 34°35' W 058°22'0 0.0
2016-Dec-09 22:15S 34°35' W 058°22'0 0.0
2016-Dec-09 21:09S 34°35' W 058°22'0 0.0
2016-Dec-09 16:21S 34°35' W 058°22'0 0.0
2016-Dec-09 15:27S 34°35' W 058°22'0 0.0
2016-Dec-09 09:33S 34°35' W 058°22'1 0.3
2016-Dec-09 06:29S 34°35' W 058°22'9 7.0
2016-Dec-09 05:15S 34°37' W 058°11'1014.3
2016-Dec-09 04:32S 34°40' W 057°60'1212.0
2016-Dec-09 03:33S 34°44' W 057°46'  
2016-Dec-03 07:31S 24°48' W 046°57'1617.0
2016-Dec-03 06:34S 24°38' W 046°44'1716.6
2016-Dec-03 05:33S 24°25' W 046°32'1716.8
2016-Dec-03 04:33S 24°09' W 046°25'1111.2
2016-Dec-03 03:33S 23°60' W 046°19'2 1.9
2016-Dec-03 02:27S 23°58' W 046°18'0 0.0
2016-Dec-03 01:30S 23°58' W 046°18'0 0.0
2016-Dec-03 00:30S 23°58' W 046°18'0 0.0
2016-Dec-02 23:34S 23°58' W 046°18'0 0.0
2016-Dec-02 22:34S 23°58' W 046°18'0 0.0
2016-Dec-02 21:33S 23°58' W 046°18'0 0.0
2016-Dec-02 20:33S 23°58' W 046°18'0 0.0
2016-Dec-02 19:15S 23°58' W 046°18'0 0.0
2016-Dec-02 18:33S 23°58' W 046°18'0 0.0
2016-Dec-02 17:34S 23°58' W 046°18'0 0.0
2016-Dec-02 16:33S 23°58' W 046°18'0 0.0
2016-Dec-02 15:33S 23°58' W 046°18'0 0.0
2016-Dec-02 14:33S 23°58' W 046°18'0 0.0
2016-Dec-02 13:34S 23°58' W 046°18'0 0.0
2016-Dec-02 12:33S 23°58' W 046°18'0 0.0
2016-Dec-02 11:33S 23°58' W 046°18'0 0.0
2016-Dec-02 10:33S 23°58' W 046°18'0 0.0
2016-Dec-02 09:33S 23°58' W 046°18'0 0.0
2016-Dec-02 08:30S 23°58' W 046°18'0 0.0
2016-Dec-02 07:33S 23°58' W 046°18'0 0.0
2016-Dec-02 06:21S 23°58' W 046°18'0 0.0
2016-Dec-02 05:30S 23°58' W 046°18'0 0.0
2016-Dec-02 04:30S 23°58' W 046°18'0 0.0
2016-Dec-02 03:30S 23°58' W 046°18'0 0.0
2016-Dec-02 02:30S 23°58' W 046°18'0 0.0
2016-Dec-02 01:30S 23°58' W 046°18'0 0.0
2016-Dec-02 00:33S 23°58' W 046°18'0 0.0
2016-Dec-01 23:33S 23°58' W 046°18'0 0.0
2016-Dec-01 22:33S 23°58' W 046°18'0 0.0
2016-Dec-01 21:33S 23°58' W 046°18'0 0.0
2016-Dec-01 20:24S 23°58' W 046°18'0 0.0
2016-Dec-01 19:21S 23°58' W 046°18'0 0.0
2016-Dec-01 18:31S 23°58' W 046°18'4 3.8
2016-Dec-01 17:33S 24°01' W 046°20'1010.3
2016-Dec-01 16:33S 24°10' W 046°24'1 0.8
2016-Dec-01 15:33S 24°10' W 046°23'1 1.4
2016-Dec-01 14:33S 24°11' W 046°23'1 1.2
2016-Dec-01 13:33S 24°12' W 046°22'2 1.5
2016-Dec-01 12:33S 24°13' W 046°22'1 0.9
2016-Dec-01 11:33S 24°14' W 046°22'6 6.0
2016-Dec-01 10:33S 24°19' W 046°18'1110.8
2016-Dec-01 09:33S 24°27' W 046°10'1111.1
2016-Dec-01 08:33S 24°32' W 045°59'  
Track history (hours):
 
Tides and Currents Weather Stations Pressure Air Temp Water Temp Dewpoint Dewpoint Depression Visibility Wind Speed Wind Dir Waves Ship Positions

Zim Chicago

Last reported at 2016-Dec-10 12:15 UTC. Time now 2016-Dec-10 12:44 UTC.
Position S 34°35' W 058°22'.

Length 334 m; draft 11.4 m.

Type: Cargo ship. MMSI: 636014223.

Date/timePositionNaut miles runAvg speedWind from/ knotsBaromVisibWave heightAir tempDewpointWater temp
2016-Dec-10 12:15S 34°35' W 058°22'0 0.0
2016-Dec-10 11:21S 34°35' W 058°22'0 0.0
2016-Dec-10 10:33S 34°35' W 058°22'0 0.0
2016-Dec-10 09:30S 34°35' W 058°22'0 0.0
2016-Dec-10 06:27S 34°35' W 058°22'0 0.0
2016-Dec-10 05:21S 34°35' W 058°22'0 0.0
2016-Dec-10 04:33S 34°35' W 058°22'0 0.0
2016-Dec-10 03:33S 34°35' W 058°22'0 0.0
2016-Dec-10 02:30S 34°35' W 058°22'0 0.0
2016-Dec-10 01:33S 34°35' W 058°22'0 0.0
2016-Dec-10 00:21S 34°35' W 058°22'0 0.0
2016-Dec-09 22:15S 34°35' W 058°22'0 0.0
2016-Dec-09 21:09S 34°35' W 058°22'0 0.0
2016-Dec-09 16:21S 34°35' W 058°22'0 0.0
2016-Dec-09 15:27S 34°35' W 058°22'0 0.0
2016-Dec-09 09:33S 34°35' W 058°22'1 0.3
2016-Dec-09 06:29S 34°35' W 058°22'9 7.0
2016-Dec-09 05:15S 34°37' W 058°11'1014.3
2016-Dec-09 04:32S 34°40' W 057°60'1212.0
2016-Dec-09 03:33S 34°44' W 057°46'  
2016-Dec-03 07:31S 24°48' W 046°57'1617.0
2016-Dec-03 06:34S 24°38' W 046°44'1716.6
2016-Dec-03 05:33S 24°25' W 046°32'1716.8
2016-Dec-03 04:33S 24°09' W 046°25'1111.2
2016-Dec-03 03:33S 23°60' W 046°19'2 1.9
2016-Dec-03 02:27S 23°58' W 046°18'0 0.0
2016-Dec-03 01:30S 23°58' W 046°18'0 0.0
2016-Dec-03 00:30S 23°58' W 046°18'0 0.0
2016-Dec-02 23:34S 23°58' W 046°18'0 0.0
2016-Dec-02 22:34S 23°58' W 046°18'0 0.0
2016-Dec-02 21:33S 23°58' W 046°18'0 0.0
2016-Dec-02 20:33S 23°58' W 046°18'0 0.0
2016-Dec-02 19:15S 23°58' W 046°18'0 0.0
2016-Dec-02 18:33S 23°58' W 046°18'0 0.0
2016-Dec-02 17:34S 23°58' W 046°18'0 0.0
2016-Dec-02 16:33S 23°58' W 046°18'0 0.0
2016-Dec-02 15:33S 23°58' W 046°18'0 0.0
2016-Dec-02 14:33S 23°58' W 046°18'0 0.0
2016-Dec-02 13:34S 23°58' W 046°18'0 0.0
2016-Dec-02 12:33S 23°58' W 046°18'0 0.0
2016-Dec-02 11:33S 23°58' W 046°18'0 0.0
2016-Dec-02 10:33S 23°58' W 046°18'0 0.0
2016-Dec-02 09:33S 23°58' W 046°18'0 0.0
2016-Dec-02 08:30S 23°58' W 046°18'0 0.0
2016-Dec-02 07:33S 23°58' W 046°18'0 0.0
2016-Dec-02 06:21S 23°58' W 046°18'0 0.0
2016-Dec-02 05:30S 23°58' W 046°18'0 0.0
2016-Dec-02 04:30S 23°58' W 046°18'0 0.0
2016-Dec-02 03:30S 23°58' W 046°18'0 0.0
2016-Dec-02 02:30S 23°58' W 046°18'0 0.0
2016-Dec-02 01:30S 23°58' W 046°18'0 0.0
2016-Dec-02 00:33S 23°58' W 046°18'0 0.0
2016-Dec-01 23:33S 23°58' W 046°18'0 0.0
2016-Dec-01 22:33S 23°58' W 046°18'0 0.0
2016-Dec-01 21:33S 23°58' W 046°18'0 0.0
2016-Dec-01 20:24S 23°58' W 046°18'0 0.0
2016-Dec-01 19:21S 23°58' W 046°18'0 0.0
2016-Dec-01 18:31S 23°58' W 046°18'4 3.8
2016-Dec-01 17:33S 24°01' W 046°20'1010.3
2016-Dec-01 16:33S 24°10' W 046°24'1 0.8
2016-Dec-01 15:33S 24°10' W 046°23'1 1.4
2016-Dec-01 14:33S 24°11' W 046°23'1 1.2
2016-Dec-01 13:33S 24°12' W 046°22'2 1.5
2016-Dec-01 12:33S 24°13' W 046°22'1 0.9
2016-Dec-01 11:33S 24°14' W 046°22'6 6.0
2016-Dec-01 10:33S 24°19' W 046°18'1110.8
2016-Dec-01 09:33S 24°27' W 046°10'1111.1
2016-Dec-01 08:33S 24°32' W 045°59'  

Dump ship's entire track history